Time,TemperatureF,DewpointF,PressureIn,WindDirection,WindDirectionDegrees,WindSpeedMPH,WindSpeedGustMPH,Humidity,HourlyPrecipIn,Conditions,Clouds,dailyrainin,SoftwareType,DateUTC
2013-07-25 00:02:00,68.0,64.0,29.80,North,355,0.0,0.0,86,0.00,,,0.01,,2013-07-25 04:02:00,
2013-07-25 00:22:00,67.0,62.0,29.81,North,355,0.0,0.0,85,0.00,,,0.01,,2013-07-25 04:22:00,
2013-07-25 00:33:00,67.0,63.0,29.81,North,355,0.0,0.0,86,0.00,,,0.01,,2013-07-25 04:33:00,
2013-07-25 00:43:00,67.0,62.0,29.82,North,355,0.0,0.0,85,0.00,,,0.01,,2013-07-25 04:43:00,
2013-07-25 01:02:00,67.0,62.0,29.82,North,355,0.0,0.0,84,0.00,,,0.01,,2013-07-25 05:02:00,
2013-07-25 01:12:00,67.0,62.0,29.82,North,355,0.0,0.0,84,0.00,,,0.01,,2013-07-25 05:12:00,
2013-07-25 01:22:00,66.0,62.0,29.82,North,355,0.0,0.0,86,0.00,,,0.01,,2013-07-25 05:22:00,
2013-07-25 01:32:00,66.0,62.0,29.82,North,355,0.0,0.0,86,0.00,,,0.01,,2013-07-25 05:32:00,
2013-07-25 01:43:00,66.0,62.0,29.82,North,355,0.0,0.0,86,0.00,,,0.01,,2013-07-25 05:43:00,
2013-07-25 01:52:00,66.0,62.0,29.82,North,355,0.0,0.0,86,0.00,,,0.01,,2013-07-25 05:52:00,
2013-07-25 02:02:00,66.0,62.0,29.82,North,355,0.0,0.0,86,0.00,,,0.01,,2013-07-25 06:02:00,
2013-07-25 02:12:00,66.0,62.0,29.82,North,355,0.0,0.0,86,0.00,,,0.01,,2013-07-25 06:12:00,
2013-07-25 02:32:00,65.0,61.0,29.82,North,355,0.0,0.0,87,0.00,,,0.01,,2013-07-25 06:32:00,
2013-07-25 02:42:00,65.0,61.0,29.81,North,355,0.0,0.0,87,0.00,,,0.01,,2013-07-25 06:42:00,
2013-07-25 02:52:00,65.0,61.0,29.81,North,355,0.0,0.0,87,0.00,,,0.01,,2013-07-25 06:52:00,
2013-07-25 03:02:00,65.0,61.0,29.81,North,355,0.0,0.0,87,0.00,,,0.01,,2013-07-25 07:02:00,
2013-07-25 03:12:00,65.0,61.0,29.81,North,355,0.0,0.0,87,0.00,,,0.01,,2013-07-25 07:12:00,
2013-07-25 03:22:00,65.0,61.0,29.81,North,355,0.0,0.0,87,0.00,,,0.01,,2013-07-25 07:22:00,
2013-07-25 03:33:00,65.0,61.0,29.81,North,355,0.0,0.0,88,0.00,,,0.01,,2013-07-25 07:33:00,
2013-07-25 03:43:00,64.0,60.0,29.81,North,355,0.0,0.0,88,0.00,,,0.01,,2013-07-25 07:43:00,
2013-07-25 03:53:00,64.0,60.0,29.81,North,355,0.0,0.0,88,0.00,,,0.01,,2013-07-25 07:53:00,
2013-07-25 04:02:00,64.0,60.0,29.80,North,355,0.0,0.0,88,0.00,,,0.01,,2013-07-25 08:02:00,
2013-07-25 04:12:00,64.0,60.0,29.81,North,355,0.0,0.0,88,0.00,,,0.01,,2013-07-25 08:12:00,
2013-07-25 04:22:00,64.0,60.0,29.81,North,355,0.0,0.0,88,0.00,,,0.01,,2013-07-25 08:22:00,
2013-07-25 04:44:00,64.0,60.0,29.81,North,355,0.0,0.0,88,0.00,,,0.01,,2013-07-25 08:44:00,
2013-07-25 05:02:00,63.0,60.0,29.81,North,355,0.0,0.0,89,0.00,,,0.01,,2013-07-25 09:02:00,
2013-07-25 05:12:00,63.0,60.0,29.82,North,355,0.0,0.0,89,0.00,,,0.01,,2013-07-25 09:12:00,
2013-07-25 05:22:00,63.0,60.0,29.82,North,355,0.0,0.0,89,0.00,,,0.01,,2013-07-25 09:22:00,
2013-07-25 05:43:00,63.0,60.0,29.82,North,355,0.0,0.0,89,0.00,,,0.01,,2013-07-25 09:43:00,
2013-07-25 05:52:00,63.0,60.0,29.82,North,355,0.0,0.0,89,0.00,,,0.01,,2013-07-25 09:52:00,
2013-07-25 06:02:00,63.0,60.0,29.82,North,355,0.0,0.0,89,0.00,,,0.01,,2013-07-25 10:02:00,
2013-07-25 06:12:00,63.0,60.0,29.82,North,355,0.0,0.0,89,0.00,,,0.01,,2013-07-25 10:12:00,
2013-07-25 06:42:00,62.0,59.0,29.83,North,355,0.0,0.0,90,0.00,,,0.01,,2013-07-25 10:42:00,
2013-07-25 07:02:00,62.0,59.0,29.84,North,355,0.0,0.0,90,0.00,,,0.01,,2013-07-25 11:02:00,
2013-07-25 07:12:00,62.0,59.0,29.84,North,355,0.0,0.0,91,0.00,,,0.01,,2013-07-25 11:12:00,
2013-07-25 07:22:00,62.0,59.0,29.84,North,355,0.0,0.0,91,0.00,,,0.01,,2013-07-25 11:22:00,
2013-07-25 07:32:00,62.0,59.0,29.84,North,355,0.0,0.0,91,0.00,,,0.01,,2013-07-25 11:32:00,
2013-07-25 07:43:00,62.0,60.0,29.85,North,355,0.0,0.0,92,0.00,,,0.01,,2013-07-25 11:43:00,
2013-07-25 08:03:00,62.0,60.0,29.86,North,355,0.0,0.0,92,0.00,,,0.01,,2013-07-25 12:03:00,
2013-07-25 08:12:00,62.0,60.0,29.86,North,355,0.0,0.0,92,0.00,,,0.01,,2013-07-25 12:12:00,
2013-07-25 08:22:00,62.0,60.0,29.87,North,355,0.0,0.0,92,0.00,,,0.01,,2013-07-25 12:22:00,
2013-07-25 08:32:00,62.0,60.0,29.87,North,355,0.0,0.0,92,0.00,,,0.01,,2013-07-25 12:32:00,
2013-07-25 08:45:00,62.0,60.0,29.87,North,355,0.0,0.0,92,0.00,,,0.01,,2013-07-25 12:45:00,
2013-07-25 08:53:00,62.0,60.0,29.87,North,355,0.0,0.0,92,0.00,,,0.01,,2013-07-25 12:53:00,
2013-07-25 09:12:00,63.0,61.0,29.88,North,355,0.0,0.0,94,0.00,,,0.01,,2013-07-25 13:12:00,
2013-07-25 09:22:00,63.0,61.0,29.89,North,355,0.0,0.0,94,0.00,,,0.01,,2013-07-25 13:22:00,
2013-07-25 09:43:00,64.0,62.0,29.89,North,5,0.0,0.0,93,0.00,,,0.01,,2013-07-25 13:43:00,
2013-07-25 10:02:00,64.0,62.0,29.89,North,360,0.0,0.0,92,0.00,,,0.01,,2013-07-25 14:02:00,
2013-07-25 10:12:00,64.0,62.0,29.89,North,360,0.0,0.0,92,0.00,,,0.01,,2013-07-25 14:12:00,
2013-07-25 10:22:00,64.0,62.0,29.89,North,360,0.0,0.0,93,0.00,,,0.01,,2013-07-25 14:22:00,
2013-07-25 10:33:00,64.0,62.0,29.89,North,360,0.0,0.0,93,0.00,,,0.01,,2013-07-25 14:33:00,
2013-07-25 10:43:00,65.0,63.0,29.89,North,5,0.0,0.0,92,0.00,,,0.01,,2013-07-25 14:43:00,
2013-07-25 11:02:00,68.0,64.0,29.88,North,9,0.0,0.0,88,0.00,,,0.01,,2013-07-25 15:02:00,
2013-07-25 11:12:00,68.0,64.0,29.88,North,9,0.0,0.0,88,0.00,,,0.01,,2013-07-25 15:12:00,
2013-07-25 11:22:00,68.0,64.0,29.89,North,10,0.0,0.0,87,0.00,,,0.01,,2013-07-25 15:22:00,
2013-07-25 11:32:00,68.0,64.0,29.89,North,10,0.0,0.0,87,0.00,,,0.01,,2013-07-25 15:32:00,
2013-07-25 11:44:00,71.0,65.0,29.89,North,9,0.0,0.0,82,0.00,,,0.01,,2013-07-25 15:44:00,
2013-07-25 11:52:00,71.0,65.0,29.89,North,9,0.0,0.0,82,0.00,,,0.01,,2013-07-25 15:52:00,
2013-07-25 12:02:00,71.0,65.0,29.89,North,9,0.0,0.0,82,0.00,,,0.01,,2013-07-25 16:02:00,
2013-07-25 12:33:00,74.0,64.0,29.89,NNE,13,0.0,0.0,70,0.00,,,0.01,,2013-07-25 16:33:00,
2013-07-25 13:03:00,76.0,67.0,29.89,NNW,339,0.0,0.0,74,0.00,,,0.01,,2013-07-25 17:03:00,
2013-07-25 13:12:00,77.0,67.0,29.90,NNE,19,0.0,0.0,71,0.00,,,0.01,,2013-07-25 17:12:00,
2013-07-25 13:22:00,77.0,67.0,29.90,NNE,19,0.0,0.0,71,0.00,,,0.01,,2013-07-25 17:22:00,
2013-07-25 13:32:00,77.0,67.0,29.90,NNE,19,0.0,0.0,71,0.00,,,0.01,,2013-07-25 17:32:00,
2013-07-25 13:53:00,78.0,64.0,29.89,North,11,0.0,0.0,63,0.00,,,0.01,,2013-07-25 17:53:00,
2013-07-25 14:02:00,78.0,64.0,29.89,North,11,0.0,0.0,63,0.00,,,0.01,,2013-07-25 18:02:00,
2013-07-25 14:33:00,79.0,62.0,29.89,SSW,207,0.0,0.0,56,0.00,,,0.01,,2013-07-25 18:33:00,
2013-07-25 14:43:00,79.0,55.0,29.89,South,175,0.0,0.0,44,0.00,,,0.01,,2013-07-25 18:43:00,
2013-07-25 14:52:00,79.0,56.0,29.89,WSW,247,0.0,0.0,46,0.00,,,0.01,,2013-07-25 18:52:00,
2013-07-25 15:33:00,80.0,57.0,29.88,SSE,157,0.0,0.0,46,0.00,,,0.00,,2013-07-25 19:33:00,
2013-07-25 15:43:00,79.0,62.0,29.88,SSE,153,0.0,0.0,57,0.00,,,0.00,,2013-07-25 19:43:00,
2013-07-25 17:44:00,78.0,65.0,29.88,NW,316,0.0,0.0,64,0.00,,,0.00,,2013-07-25 21:44:00,
2013-07-25 17:52:00,77.0,66.0,29.88,East,97,0.0,0.0,70,0.00,,,0.00,,2013-07-25 21:52:00,
2013-07-25 18:12:00,77.0,66.0,29.89,SW,227,0.0,0.0,68,0.00,,,0.00,,2013-07-25 22:12:00,
2013-07-25 18:22:00,77.0,66.0,29.89,SW,227,0.0,0.0,68,0.00,,,0.00,,2013-07-25 22:22:00,
2013-07-25 18:32:00,77.0,66.0,29.89,SW,227,0.0,0.0,68,0.00,,,0.00,,2013-07-25 22:32:00,
2013-07-25 18:43:00,76.0,66.0,29.88,North,360,0.0,0.0,71,0.00,,,0.00,,2013-07-25 22:43:00,
2013-07-25 18:52:00,76.0,66.0,29.88,East,101,0.0,0.0,71,0.00,,,0.00,,2013-07-25 22:52:00,
2013-07-25 19:02:00,75.0,65.0,29.88,NE,46,0.0,0.0,70,0.00,,,0.00,,2013-07-25 23:02:00,
2013-07-25 19:22:00,75.0,65.0,29.89,ENE,61,0.0,0.0,72,0.00,,,0.00,,2013-07-25 23:22:00,
2013-07-25 19:32:00,75.0,65.0,29.89,ENE,61,0.0,0.0,72,0.00,,,0.00,,2013-07-25 23:32:00,
2013-07-25 19:43:00,75.0,65.0,29.89,ENE,61,0.0,0.0,72,0.00,,,0.00,,2013-07-25 23:43:00,
2013-07-25 19:52:00,74.0,66.0,29.90,ENE,57,0.0,0.0,75,0.00,,,0.00,,2013-07-25 23:52:00,
2013-07-25 20:02:00,74.0,66.0,29.90,ENE,57,0.0,0.0,75,0.00,,,0.00,,2013-07-26 00:02:00,
2013-07-25 20:12:00,74.0,66.0,29.90,ENE,57,0.0,0.0,75,0.00,,,0.00,,2013-07-26 00:12:00,
2013-07-25 20:22:00,72.0,65.0,29.92,SE,134,0.0,0.0,78,0.00,,,0.00,,2013-07-26 00:22:00,
2013-07-25 20:33:00,72.0,65.0,29.92,SSW,192,0.0,0.0,78,0.00,,,0.00,,2013-07-26 00:33:00,
2013-07-25 20:43:00,71.0,63.0,29.93,SSW,192,0.0,0.0,77,0.00,,,0.00,,2013-07-26 00:43:00,
2013-07-25 20:52:00,71.0,63.0,29.93,SSW,192,0.0,0.0,77,0.00,,,0.00,,2013-07-26 00:52:00,
2013-07-25 21:12:00,70.0,64.0,29.93,WSW,256,0.0,0.0,81,0.00,,,0.00,,2013-07-26 01:12:00,
2013-07-25 21:32:00,70.0,64.0,29.93,WSW,258,0.0,0.0,80,0.00,,,0.00,,2013-07-26 01:32:00,
2013-07-25 21:43:00,70.0,64.0,29.93,WSW,258,0.0,0.0,80,0.00,,,0.00,,2013-07-26 01:43:00,
2013-07-25 21:52:00,70.0,64.0,29.95,West,263,0.0,0.0,82,0.00,,,0.00,,2013-07-26 01:52:00,
2013-07-25 22:00:00,68.0,62.0,29.96,West,275,0.0,0.0,82,0.00,,,0.00,,2013-07-26 02:00:00,
2013-07-25 22:12:00,69.0,63.0,29.95,West,263,0.0,0.0,82,0.00,,,0.00,,2013-07-26 02:12:00,
2013-07-25 22:22:00,68.0,62.0,29.96,West,275,0.0,0.0,82,0.00,,,0.00,,2013-07-26 02:22:00,
2013-07-25 22:32:00,68.0,62.0,29.96,West,275,0.0,0.0,82,0.00,,,0.00,,2013-07-26 02:32:00,
2013-07-25 22:43:00,68.0,62.0,29.96,West,275,0.0,0.0,82,0.00,,,0.00,,2013-07-26 02:43:00,
2013-07-25 22:52:00,68.0,62.0,29.96,West,275,0.0,0.0,82,0.00,,,0.00,,2013-07-26 02:52:00,
2013-07-25 23:22:00,67.0,61.0,29.98,WNW,294,0.0,0.0,81,0.00,,,0.00,,2013-07-26 03:22:00,
2013-07-25 23:53:00,66.0,61.0,29.97,WNW,294,0.0,0.0,84,0.00,,,0.00,,2013-07-26 03:53:00,